Accueil
METAR-TAF:

METAR-TAF

Aéroports :

Santander, Espagne

Aéroport Santander Seve Ballesteros

latitude: 43-26N, longitude: 003-49W, altitude: 6 m

Observation

Le bulletin a été fait il y a 32 minutes, à 00:00 UTC
Vent 3 kt de sud/sud-ouest
Température 2°C
Humidité 93%
Pression 1008 hPa
Visibilité: 7000 m

METAR: LEXJ 240000Z AUTO 20003KT 7000 NCD 02/01 Q1008

Heure: 01:32 (00:32 UTC)

Prévision

Le bulletin a été fait il y a 4 heures et 32 minutes, à 20:00 UTC
Prévision valable du 23 à 21 UTC au 24 à 21 UTC
Vent 6 kt de est
Visibilité: 9000 m
Quelques nuages à une hauteur de 3000 ft
Probabilité 30% :
Temporairement
du 24 à 04 UTC au 24 à 07 UTC
Visibilité: 4500 m
brume

TAF: LEXJ 232000Z 2321/2421 10006KT 9000 FEW030 TX10/2415Z TN01/2405Z PROB30 TEMPO 2404/2407 4500 BR

Observations et prévisions météorologiques de plus de 4000 aéroports (messages METAR et TAF).

Les stations disponibles sont représentées par des disques jaunes et rouges sur la carte.

Passer la souris dessus pour voir le nom de la station.

Cliquer dessus pour voir les observations et prévisions météorologiques.

Pour changer de carte: cliquez sur les boutons verts avec une croix noire pour zoomer, sur le bouton vert avec un tiret pour effectuer un zoom arrière, ou sur les flèches vertes pour les cartes adjacentes.


METAR-TAF: